sensor_id;sensor_type;location;lat;lon;timestamp;temperature;humidity
60717;DHT22;46566;52.700;6.192;2022-07-10T00:00:01;15.20;99.90
60717;DHT22;46566;52.700;6.192;2022-07-10T00:02:39;15.20;99.90
60717;DHT22;46566;52.700;6.192;2022-07-10T00:05:05;15.20;99.90
60717;DHT22;46566;52.700;6.192;2022-07-10T00:07:31;15.20;99.90
60717;DHT22;46566;52.700;6.192;2022-07-10T00:09:57;15.10;99.90
60717;DHT22;46566;52.700;6.192;2022-07-10T00:12:23;15.10;99.90
60717;DHT22;46566;52.700;6.192;2022-07-10T00:14:48;15.00;99.90
60717;DHT22;46566;52.700;6.192;2022-07-10T00:17:14;15.00;99.90
60717;DHT22;46566;52.700;6.192;2022-07-10T00:19:40;15.00;99.90
60717;DHT22;46566;52.700;6.192;2022-07-10T00:22:06;14.90;99.90
60717;DHT22;46566;52.700;6.192;2022-07-10T00:24:32;14.90;99.90
60717;DHT22;46566;52.700;6.192;2022-07-10T00:26:58;14.90;99.90
60717;DHT22;46566;52.700;6.192;2022-07-10T00:29:24;14.90;99.90
60717;DHT22;46566;52.700;6.192;2022-07-10T00:31:50;14.80;99.90
60717;DHT22;46566;52.700;6.192;2022-07-10T00:34:15;14.80;99.90
60717;DHT22;46566;52.700;6.192;2022-07-10T00:36:41;14.70;99.90
60717;DHT22;46566;52.700;6.192;2022-07-10T00:39:08;14.70;99.90
60717;DHT22;46566;52.700;6.192;2022-07-10T00:41:34;14.70;99.90
60717;DHT22;46566;52.700;6.192;2022-07-10T00:44:02;14.60;99.90
60717;DHT22;46566;52.700;6.192;2022-07-10T00:46:29;14.60;99.90
60717;DHT22;46566;52.700;6.192;2022-07-10T00:48:55;14.50;99.90
60717;DHT22;46566;52.700;6.192;2022-07-10T00:51:24;14.50;99.90
60717;DHT22;46566;52.700;6.192;2022-07-10T00:53:51;14.50;99.90
60717;DHT22;46566;52.700;6.192;2022-07-10T00:56:19;14.50;99.90
60717;DHT22;46566;52.700;6.192;2022-07-10T00:58:47;14.40;99.90
60717;DHT22;46566;52.700;6.192;2022-07-10T01:01:13;14.40;99.90
60717;DHT22;46566;52.700;6.192;2022-07-10T01:03:40;14.40;99.90
60717;DHT22;46566;52.700;6.192;2022-07-10T01:06:06;14.40;99.90
60717;DHT22;46566;52.700;6.192;2022-07-10T01:08:32;14.30;99.90
60717;DHT22;46566;52.700;6.192;2022-07-10T01:10:58;14.30;99.90
60717;DHT22;46566;52.700;6.192;2022-07-10T01:13:24;14.20;99.90
60717;DHT22;46566;52.700;6.192;2022-07-10T01:15:51;14.20;99.90
60717;DHT22;46566;52.700;6.192;2022-07-10T01:18:18;14.20;99.90
60717;DHT22;46566;52.700;6.192;2022-07-10T01:20:44;14.20;99.90
60717;DHT22;46566;52.700;6.192;2022-07-10T01:23:10;14.10;99.90
60717;DHT22;46566;52.700;6.192;2022-07-10T01:25:35;14.10;99.90
60717;DHT22;46566;52.700;6.192;2022-07-10T01:28:01;14.00;99.90
60717;DHT22;46566;52.700;6.192;2022-07-10T01:30:27;14.00;99.90
60717;DHT22;46566;52.700;6.192;2022-07-10T01:32:53;14.00;99.90
60717;DHT22;46566;52.700;6.192;2022-07-10T01:35:19;13.90;99.90
60717;DHT22;46566;52.700;6.192;2022-07-10T01:37:45;13.90;99.90
60717;DHT22;46566;52.700;6.192;2022-07-10T01:40:11;13.90;99.90
60717;DHT22;46566;52.700;6.192;2022-07-10T01:42:40;13.90;99.90
60717;DHT22;46566;52.700;6.192;2022-07-10T01:45:08;13.80;99.90
60717;DHT22;46566;52.700;6.192;2022-07-10T01:47:34;13.80;99.90
60717;DHT22;46566;52.700;6.192;2022-07-10T01:50:00;13.80;99.90
60717;DHT22;46566;52.700;6.192;2022-07-10T01:52:26;13.80;99.90
60717;DHT22;46566;52.700;6.192;2022-07-10T01:54:51;13.70;99.90
60717;DHT22;46566;52.700;6.192;2022-07-10T01:57:17;13.70;99.90
60717;DHT22;46566;52.700;6.192;2022-07-10T01:59:43;13.70;99.90
60717;DHT22;46566;52.700;6.192;2022-07-10T02:02:10;13.60;99.90
60717;DHT22;46566;52.700;6.192;2022-07-10T02:04:36;13.60;99.90
60717;DHT22;46566;52.700;6.192;2022-07-10T02:07:08;13.60;99.90
60717;DHT22;46566;52.700;6.192;2022-07-10T02:09:34;13.60;99.90
60717;DHT22;46566;52.700;6.192;2022-07-10T02:12:00;13.60;99.90
60717;DHT22;46566;52.700;6.192;2022-07-10T02:14:27;13.60;99.90
60717;DHT22;46566;52.700;6.192;2022-07-10T02:16:52;13.60;99.90
60717;DHT22;46566;52.700;6.192;2022-07-10T02:19:18;13.60;99.90
60717;DHT22;46566;52.700;6.192;2022-07-10T02:21:44;13.60;99.90
60717;DHT22;46566;52.700;6.192;2022-07-10T02:24:09;13.50;99.90
60717;DHT22;46566;52.700;6.192;2022-07-10T02:26:35;13.50;99.90
60717;DHT22;46566;52.700;6.192;2022-07-10T02:29:01;13.50;99.90
60717;DHT22;46566;52.700;6.192;2022-07-10T02:31:26;13.50;99.90
60717;DHT22;46566;52.700;6.192;2022-07-10T02:33:52;13.40;99.90
60717;DHT22;46566;52.700;6.192;2022-07-10T02:36:18;13.40;99.90
60717;DHT22;46566;52.700;6.192;2022-07-10T02:38:44;13.40;99.90
60717;DHT22;46566;52.700;6.192;2022-07-10T02:41:10;13.40;99.90
60717;DHT22;46566;52.700;6.192;2022-07-10T02:43:35;13.30;99.90
60717;DHT22;46566;52.700;6.192;2022-07-10T02:46:01;13.30;99.90
60717;DHT22;46566;52.700;6.192;2022-07-10T02:48:28;13.30;99.90
60717;DHT22;46566;52.700;6.192;2022-07-10T02:50:54;13.30;99.90
60717;DHT22;46566;52.700;6.192;2022-07-10T02:53:19;13.30;99.90
60717;DHT22;46566;52.700;6.192;2022-07-10T02:55:45;13.30;99.90
60717;DHT22;46566;52.700;6.192;2022-07-10T02:58:11;13.20;99.90
60717;DHT22;46566;52.700;6.192;2022-07-10T03:00:37;13.20;99.90
60717;DHT22;46566;52.700;6.192;2022-07-10T03:03:03;13.20;99.90
60717;DHT22;46566;52.700;6.192;2022-07-10T03:05:28;13.20;99.90
60717;DHT22;46566;52.700;6.192;2022-07-10T03:07:54;13.20;99.90
60717;DHT22;46566;52.700;6.192;2022-07-10T03:10:20;13.20;99.90
60717;DHT22;46566;52.700;6.192;2022-07-10T03:12:46;13.20;99.90
60717;DHT22;46566;52.700;6.192;2022-07-10T03:15:13;13.20;99.90
60717;DHT22;46566;52.700;6.192;2022-07-10T03:17:39;13.20;99.90
60717;DHT22;46566;52.700;6.192;2022-07-10T03:20:06;13.30;99.90
60717;DHT22;46566;52.700;6.192;2022-07-10T03:22:32;13.30;99.90
60717;DHT22;46566;52.700;6.192;2022-07-10T03:24:58;13.30;99.90
60717;DHT22;46566;52.700;6.192;2022-07-10T03:27:24;13.40;99.90
60717;DHT22;46566;52.700;6.192;2022-07-10T03:29:50;13.40;99.90
60717;DHT22;46566;52.700;6.192;2022-07-10T03:32:16;13.50;99.90
60717;DHT22;46566;52.700;6.192;2022-07-10T03:34:42;13.50;99.90
60717;DHT22;46566;52.700;6.192;2022-07-10T03:37:08;13.50;99.90
60717;DHT22;46566;52.700;6.192;2022-07-10T03:39:33;13.60;99.90
60717;DHT22;46566;52.700;6.192;2022-07-10T03:41:59;13.50;99.90
60717;DHT22;46566;52.700;6.192;2022-07-10T03:44:25;13.60;99.90
60717;DHT22;46566;52.700;6.192;2022-07-10T03:46:51;13.60;99.90
60717;DHT22;46566;52.700;6.192;2022-07-10T03:49:16;13.70;99.90
60717;DHT22;46566;52.700;6.192;2022-07-10T03:51:42;13.70;99.90
60717;DHT22;46566;52.700;6.192;2022-07-10T03:54:08;13.70;99.90
60717;DHT22;46566;52.700;6.192;2022-07-10T03:56:34;13.70;99.90
60717;DHT22;46566;52.700;6.192;2022-07-10T03:59:18;13.70;99.90
60717;DHT22;46566;52.700;6.192;2022-07-10T04:01:44;13.80;99.90
60717;DHT22;46566;52.700;6.192;2022-07-10T04:04:10;13.70;99.90
60717;DHT22;46566;52.700;6.192;2022-07-10T04:06:36;13.70;99.90
60717;DHT22;46566;52.700;6.192;2022-07-10T04:09:05;13.80;99.90
60717;DHT22;46566;52.700;6.192;2022-07-10T04:11:31;13.80;99.90
60717;DHT22;46566;52.700;6.192;2022-07-10T04:13:57;13.80;99.90
60717;DHT22;46566;52.700;6.192;2022-07-10T04:16:22;13.90;99.90
60717;DHT22;46566;52.700;6.192;2022-07-10T04:18:49;13.90;99.90
60717;DHT22;46566;52.700;6.192;2022-07-10T04:21:15;13.90;99.90
60717;DHT22;46566;52.700;6.192;2022-07-10T04:23:41;14.00;99.90
60717;DHT22;46566;52.700;6.192;2022-07-10T04:26:07;14.00;99.90
60717;DHT22;46566;52.700;6.192;2022-07-10T04:28:32;14.10;99.90
60717;DHT22;46566;52.700;6.192;2022-07-10T04:30:58;14.10;99.90
60717;DHT22;46566;52.700;6.192;2022-07-10T04:33:25;14.20;99.90
60717;DHT22;46566;52.700;6.192;2022-07-10T04:35:51;14.20;99.90
60717;DHT22;46566;52.700;6.192;2022-07-10T04:38:17;14.20;99.90
60717;DHT22;46566;52.700;6.192;2022-07-10T04:40:42;14.30;99.90
60717;DHT22;46566;52.700;6.192;2022-07-10T04:43:08;14.30;99.90
60717;DHT22;46566;52.700;6.192;2022-07-10T04:45:36;14.30;99.90
60717;DHT22;46566;52.700;6.192;2022-07-10T04:48:04;14.40;99.90
60717;DHT22;46566;52.700;6.192;2022-07-10T04:50:30;14.40;99.90
60717;DHT22;46566;52.700;6.192;2022-07-10T04:52:56;14.40;99.90
60717;DHT22;46566;52.700;6.192;2022-07-10T04:55:22;14.40;99.90
60717;DHT22;46566;52.700;6.192;2022-07-10T04:57:48;14.40;99.90
60717;DHT22;46566;52.700;6.192;2022-07-10T05:00:14;14.40;99.90
60717;DHT22;46566;52.700;6.192;2022-07-10T05:02:41;14.40;99.90
60717;DHT22;46566;52.700;6.192;2022-07-10T05:05:07;14.50;99.90
60717;DHT22;46566;52.700;6.192;2022-07-10T05:07:33;14.50;99.90
60717;DHT22;46566;52.700;6.192;2022-07-10T05:09:58;14.50;99.90
60717;DHT22;46566;52.700;6.192;2022-07-10T05:12:25;14.50;99.90
60717;DHT22;46566;52.700;6.192;2022-07-10T05:14:51;14.60;99.90
60717;DHT22;46566;52.700;6.192;2022-07-10T05:17:16;14.60;99.90
60717;DHT22;46566;52.700;6.192;2022-07-10T05:19:42;14.70;99.90
60717;DHT22;46566;52.700;6.192;2022-07-10T05:22:08;14.70;99.90
60717;DHT22;46566;52.700;6.192;2022-07-10T05:24:35;14.70;99.90
60717;DHT22;46566;52.700;6.192;2022-07-10T05:27:01;14.70;99.90
60717;DHT22;46566;52.700;6.192;2022-07-10T05:29:27;14.80;99.90
60717;DHT22;46566;52.700;6.192;2022-07-10T05:31:53;14.80;99.90
60717;DHT22;46566;52.700;6.192;2022-07-10T05:34:18;14.90;99.90
60717;DHT22;46566;52.700;6.192;2022-07-10T05:36:44;14.90;99.90
60717;DHT22;46566;52.700;6.192;2022-07-10T05:39:10;15.00;99.90
60717;DHT22;46566;52.700;6.192;2022-07-10T05:41:36;15.00;99.90
60717;DHT22;46566;52.700;6.192;2022-07-10T05:44:02;15.00;99.90
60717;DHT22;46566;52.700;6.192;2022-07-10T05:46:28;15.10;99.90
60717;DHT22;46566;52.700;6.192;2022-07-10T05:48:54;15.20;99.90
60717;DHT22;46566;52.700;6.192;2022-07-10T05:51:19;15.20;99.90
60717;DHT22;46566;52.700;6.192;2022-07-10T05:53:45;15.20;99.90
60717;DHT22;46566;52.700;6.192;2022-07-10T05:56:11;15.20;99.90
60717;DHT22;46566;52.700;6.192;2022-07-10T05:58:37;15.20;99.90
60717;DHT22;46566;52.700;6.192;2022-07-10T06:01:02;15.20;99.90
60717;DHT22;46566;52.700;6.192;2022-07-10T06:03:28;15.20;99.90
60717;DHT22;46566;52.700;6.192;2022-07-10T06:05:54;15.30;99.90
60717;DHT22;46566;52.700;6.192;2022-07-10T06:08:20;15.30;99.90
60717;DHT22;46566;52.700;6.192;2022-07-10T06:10:46;15.30;99.90
60717;DHT22;46566;52.700;6.192;2022-07-10T06:13:12;15.40;99.90
60717;DHT22;46566;52.700;6.192;2022-07-10T06:15:38;15.40;99.90
60717;DHT22;46566;52.700;6.192;2022-07-10T06:18:04;15.40;99.90
60717;DHT22;46566;52.700;6.192;2022-07-10T06:20:30;15.50;99.90
60717;DHT22;46566;52.700;6.192;2022-07-10T06:22:57;15.50;99.90
60717;DHT22;46566;52.700;6.192;2022-07-10T06:25:23;15.50;99.90
60717;DHT22;46566;52.700;6.192;2022-07-10T06:27:49;15.50;99.90
60717;DHT22;46566;52.700;6.192;2022-07-10T06:30:15;15.50;99.90
60717;DHT22;46566;52.700;6.192;2022-07-10T06:32:41;15.50;99.90
60717;DHT22;46566;52.700;6.192;2022-07-10T06:35:07;15.50;99.90
60717;DHT22;46566;52.700;6.192;2022-07-10T06:37:33;15.40;99.90
60717;DHT22;46566;52.700;6.192;2022-07-10T06:40:00;15.40;99.90
60717;DHT22;46566;52.700;6.192;2022-07-10T06:42:26;15.30;99.90
60717;DHT22;46566;52.700;6.192;2022-07-10T06:44:58;15.40;99.90
60717;DHT22;46566;52.700;6.192;2022-07-10T06:47:24;15.40;99.90
60717;DHT22;46566;52.700;6.192;2022-07-10T06:50:09;15.40;99.90
60717;DHT22;46566;52.700;6.192;2022-07-10T06:52:36;15.40;99.90
60717;DHT22;46566;52.700;6.192;2022-07-10T06:55:03;15.40;99.90
60717;DHT22;46566;52.700;6.192;2022-07-10T06:57:29;15.40;99.90
60717;DHT22;46566;52.700;6.192;2022-07-10T06:59:55;15.40;99.90
60717;DHT22;46566;52.700;6.192;2022-07-10T07:02:21;15.40;99.90
60717;DHT22;46566;52.700;6.192;2022-07-10T07:04:47;15.40;99.90
60717;DHT22;46566;52.700;6.192;2022-07-10T07:07:13;15.40;99.90
60717;DHT22;46566;52.700;6.192;2022-07-10T07:09:39;15.50;99.90
60717;DHT22;46566;52.700;6.192;2022-07-10T07:12:06;15.50;99.90
60717;DHT22;46566;52.700;6.192;2022-07-10T07:14:32;15.60;99.90
60717;DHT22;46566;52.700;6.192;2022-07-10T07:16:58;15.70;99.90
60717;DHT22;46566;52.700;6.192;2022-07-10T07:19:32;15.80;99.90
60717;DHT22;46566;52.700;6.192;2022-07-10T07:22:19;15.70;99.90
60717;DHT22;46566;52.700;6.192;2022-07-10T07:25:04;15.70;99.90
60717;DHT22;46566;52.700;6.192;2022-07-10T07:27:30;15.60;99.90
60717;DHT22;46566;52.700;6.192;2022-07-10T07:29:56;15.50;99.90
60717;DHT22;46566;52.700;6.192;2022-07-10T07:32:21;15.40;99.90
60717;DHT22;46566;52.700;6.192;2022-07-10T07:34:47;15.40;99.90
60717;DHT22;46566;52.700;6.192;2022-07-10T07:37:13;15.40;99.90
60717;DHT22;46566;52.700;6.192;2022-07-10T07:39:39;15.30;99.90
60717;DHT22;46566;52.700;6.192;2022-07-10T07:42:05;15.30;99.90
60717;DHT22;46566;52.700;6.192;2022-07-10T07:44:31;15.30;99.90
60717;DHT22;46566;52.700;6.192;2022-07-10T07:46:56;15.30;99.90
60717;DHT22;46566;52.700;6.192;2022-07-10T07:49:22;15.30;99.90
60717;DHT22;46566;52.700;6.192;2022-07-10T07:51:48;15.40;99.90
60717;DHT22;46566;52.700;6.192;2022-07-10T07:54:14;15.40;99.90
60717;DHT22;46566;52.700;6.192;2022-07-10T07:56:41;15.40;99.90
60717;DHT22;46566;52.700;6.192;2022-07-10T07:59:06;15.40;99.90
60717;DHT22;46566;52.700;6.192;2022-07-10T08:01:32;15.40;99.90
60717;DHT22;46566;52.700;6.192;2022-07-10T08:03:58;15.40;99.90
60717;DHT22;46566;52.700;6.192;2022-07-10T08:06:24;15.40;99.90
60717;DHT22;46566;52.700;6.192;2022-07-10T08:08:52;15.50;99.90
60717;DHT22;46566;52.700;6.192;2022-07-10T08:11:18;15.50;99.90
60717;DHT22;46566;52.700;6.192;2022-07-10T08:13:44;15.50;99.90
60717;DHT22;46566;52.700;6.192;2022-07-10T08:16:10;15.50;99.90
60717;DHT22;46566;52.700;6.192;2022-07-10T08:18:36;15.50;99.90
60717;DHT22;46566;52.700;6.192;2022-07-10T08:21:01;15.60;99.90
60717;DHT22;46566;52.700;6.192;2022-07-10T08:23:27;15.70;99.90
60717;DHT22;46566;52.700;6.192;2022-07-10T08:25:55;15.70;99.90
60717;DHT22;46566;52.700;6.192;2022-07-10T08:28:21;15.80;99.90
60717;DHT22;46566;52.700;6.192;2022-07-10T08:30:47;15.80;99.90
60717;DHT22;46566;52.700;6.192;2022-07-10T08:33:13;15.90;99.90
60717;DHT22;46566;52.700;6.192;2022-07-10T08:35:39;15.90;99.90
60717;DHT22;46566;52.700;6.192;2022-07-10T08:38:08;15.90;99.90
60717;DHT22;46566;52.700;6.192;2022-07-10T08:40:35;16.00;99.90
60717;DHT22;46566;52.700;6.192;2022-07-10T08:43:07;16.00;99.90
60717;DHT22;46566;52.700;6.192;2022-07-10T08:45:33;16.00;99.90
60717;DHT22;46566;52.700;6.192;2022-07-10T08:48:02;16.00;99.90
60717;DHT22;46566;52.700;6.192;2022-07-10T08:50:33;16.00;99.90
60717;DHT22;46566;52.700;6.192;2022-07-10T08:55:28;16.10;99.90
60717;DHT22;46566;52.700;6.192;2022-07-10T08:57:55;16.20;99.90
60717;DHT22;46566;52.700;6.192;2022-07-10T09:00:22;16.30;99.90
60717;DHT22;46566;52.700;6.192;2022-07-10T09:02:54;16.40;99.90
60717;DHT22;46566;52.700;6.192;2022-07-10T09:05:21;16.50;99.90
60717;DHT22;46566;52.700;6.192;2022-07-10T09:07:46;16.60;99.90
60717;DHT22;46566;52.700;6.192;2022-07-10T09:10:12;16.60;99.90
60717;DHT22;46566;52.700;6.192;2022-07-10T09:12:53;16.50;99.90
60717;DHT22;46566;52.700;6.192;2022-07-10T09:15:20;16.40;99.90
60717;DHT22;46566;52.700;6.192;2022-07-10T09:17:59;16.30;99.90
60717;DHT22;46566;52.700;6.192;2022-07-10T09:20:37;16.30;99.90
60717;DHT22;46566;52.700;6.192;2022-07-10T09:23:18;16.20;99.90
60717;DHT22;46566;52.700;6.192;2022-07-10T09:25:51;16.30;99.90
60717;DHT22;46566;52.700;6.192;2022-07-10T09:28:19;16.30;99.90
60717;DHT22;46566;52.700;6.192;2022-07-10T09:30:45;16.40;99.90
60717;DHT22;46566;52.700;6.192;2022-07-10T09:41:32;17.20;99.90
60717;DHT22;46566;52.700;6.192;2022-07-10T09:44:05;17.40;99.90
60717;DHT22;46566;52.700;6.192;2022-07-10T09:46:38;17.40;99.90
60717;DHT22;46566;52.700;6.192;2022-07-10T09:49:14;17.40;99.90
60717;DHT22;46566;52.700;6.192;2022-07-10T09:51:42;17.40;99.90
60717;DHT22;46566;52.700;6.192;2022-07-10T09:54:09;17.30;99.90
60717;DHT22;46566;52.700;6.192;2022-07-10T09:56:47;17.30;99.90
60717;DHT22;46566;52.700;6.192;2022-07-10T09:59:15;17.20;99.90
60717;DHT22;46566;52.700;6.192;2022-07-10T10:01:46;17.20;99.90
60717;DHT22;46566;52.700;6.192;2022-07-10T10:04:18;17.20;99.90
60717;DHT22;46566;52.700;6.192;2022-07-10T10:06:52;17.10;99.90
60717;DHT22;46566;52.700;6.192;2022-07-10T10:11:59;17.20;99.90
60717;DHT22;46566;52.700;6.192;2022-07-10T10:14:28;17.20;99.90
60717;DHT22;46566;52.700;6.192;2022-07-10T10:16:56;17.20;99.90
60717;DHT22;46566;52.700;6.192;2022-07-10T10:19:23;17.10;99.90
60717;DHT22;46566;52.700;6.192;2022-07-10T10:22:13;17.10;99.90
60717;DHT22;46566;52.700;6.192;2022-07-10T10:24:41;17.10;99.90
60717;DHT22;46566;52.700;6.192;2022-07-10T10:27:08;17.10;99.90
60717;DHT22;46566;52.700;6.192;2022-07-10T10:29:36;17.20;99.90
60717;DHT22;46566;52.700;6.192;2022-07-10T10:32:02;17.20;99.90
60717;DHT22;46566;52.700;6.192;2022-07-10T10:34:42;17.40;99.90
60717;DHT22;46566;52.700;6.192;2022-07-10T10:39:54;18.00;99.90
60717;DHT22;46566;52.700;6.192;2022-07-10T10:42:39;18.40;99.90
60717;DHT22;46566;52.700;6.192;2022-07-10T10:45:31;18.80;99.90
60717;DHT22;46566;52.700;6.192;2022-07-10T10:48:06;19.10;99.90
60717;DHT22;46566;52.700;6.192;2022-07-10T10:53:21;19.00;99.90
60717;DHT22;46566;52.700;6.192;2022-07-10T10:58:28;18.40;99.90
60717;DHT22;46566;52.700;6.192;2022-07-10T11:06:58;18.90;99.90
60717;DHT22;46566;52.700;6.192;2022-07-10T11:09:25;19.00;99.90
60717;DHT22;46566;52.700;6.192;2022-07-10T11:12:08;19.10;99.90
60717;DHT22;46566;52.700;6.192;2022-07-10T11:14:44;19.30;99.90
60717;DHT22;46566;52.700;6.192;2022-07-10T11:17:12;19.40;99.90
60717;DHT22;46566;52.700;6.192;2022-07-10T11:19:39;19.40;99.90
60717;DHT22;46566;52.700;6.192;2022-07-10T11:22:19;19.40;99.90
60717;DHT22;46566;52.700;6.192;2022-07-10T11:29:59;19.60;99.90
60717;DHT22;46566;52.700;6.192;2022-07-10T11:32:27;19.60;99.90
60717;DHT22;46566;52.700;6.192;2022-07-10T11:34:56;19.60;99.90
60717;DHT22;46566;52.700;6.192;2022-07-10T11:37:22;19.30;99.90
60717;DHT22;46566;52.700;6.192;2022-07-10T11:39:50;19.20;99.90
60717;DHT22;46566;52.700;6.192;2022-07-10T11:42:17;19.00;99.90
60717;DHT22;46566;52.700;6.192;2022-07-10T11:44:42;18.90;99.90
60717;DHT22;46566;52.700;6.192;2022-07-10T11:47:09;18.70;99.90
60717;DHT22;46566;52.700;6.192;2022-07-10T11:49:44;18.70;99.90
60717;DHT22;46566;52.700;6.192;2022-07-10T11:52:10;18.70;99.90
60717;DHT22;46566;52.700;6.192;2022-07-10T11:54:36;18.90;99.90
60717;DHT22;46566;52.700;6.192;2022-07-10T11:57:07;19.10;99.90
60717;DHT22;46566;52.700;6.192;2022-07-10T11:59:33;19.40;99.90
60717;DHT22;46566;52.700;6.192;2022-07-10T12:01:59;19.60;99.90
60717;DHT22;46566;52.700;6.192;2022-07-10T12:04:30;19.80;99.90
60717;DHT22;46566;52.700;6.192;2022-07-10T12:06:56;19.80;99.90
60717;DHT22;46566;52.700;6.192;2022-07-10T12:09:23;19.70;99.90
60717;DHT22;46566;52.700;6.192;2022-07-10T12:12:05;19.60;99.90
60717;DHT22;46566;52.700;6.192;2022-07-10T12:14:32;19.50;99.90
60717;DHT22;46566;52.700;6.192;2022-07-10T12:16:59;19.40;99.90
60717;DHT22;46566;52.700;6.192;2022-07-10T12:19:27;19.30;99.90
60717;DHT22;46566;52.700;6.192;2022-07-10T12:21:57;19.30;99.90
60717;DHT22;46566;52.700;6.192;2022-07-10T12:24:24;19.30;99.90
60717;DHT22;46566;52.700;6.192;2022-07-10T12:26:50;19.40;99.90
60717;DHT22;46566;52.700;6.192;2022-07-10T12:29:28;19.40;99.90
60717;DHT22;46566;52.700;6.192;2022-07-10T12:32:01;19.40;99.90
60717;DHT22;46566;52.700;6.192;2022-07-10T12:34:37;19.50;99.90
60717;DHT22;46566;52.700;6.192;2022-07-10T12:37:12;19.60;99.90
60717;DHT22;46566;52.700;6.192;2022-07-10T12:39:53;19.60;99.90
60717;DHT22;46566;52.700;6.192;2022-07-10T12:42:29;19.60;99.90
60717;DHT22;46566;52.700;6.192;2022-07-10T12:45:09;19.60;99.90
60717;DHT22;46566;52.700;6.192;2022-07-10T12:47:45;19.60;99.90
60717;DHT22;46566;52.700;6.192;2022-07-10T12:50:13;19.50;99.90
60717;DHT22;46566;52.700;6.192;2022-07-10T12:52:39;19.50;99.90
60717;DHT22;46566;52.700;6.192;2022-07-10T12:55:16;19.50;99.90
60717;DHT22;46566;52.700;6.192;2022-07-10T12:57:57;19.50;99.90
60717;DHT22;46566;52.700;6.192;2022-07-10T13:00:25;19.60;99.90
60717;DHT22;46566;52.700;6.192;2022-07-10T13:03:09;19.80;99.90
60717;DHT22;46566;52.700;6.192;2022-07-10T13:05:41;19.90;99.90
60717;DHT22;46566;52.700;6.192;2022-07-10T13:08:18;20.00;99.90
60717;DHT22;46566;52.700;6.192;2022-07-10T13:10:49;20.10;99.90
60717;DHT22;46566;52.700;6.192;2022-07-10T13:13:15;20.20;99.90
60717;DHT22;46566;52.700;6.192;2022-07-10T13:15:42;20.30;99.90
60717;DHT22;46566;52.700;6.192;2022-07-10T13:18:25;20.30;99.90
60717;DHT22;46566;52.700;6.192;2022-07-10T13:20:53;20.30;99.90
60717;DHT22;46566;52.700;6.192;2022-07-10T13:23:19;20.30;99.90
60717;DHT22;46566;52.700;6.192;2022-07-10T13:25:49;20.30;99.90
60717;DHT22;46566;52.700;6.192;2022-07-10T13:28:15;20.30;99.90
60717;DHT22;46566;52.700;6.192;2022-07-10T13:30:44;20.30;99.90
60717;DHT22;46566;52.700;6.192;2022-07-10T13:33:10;20.30;99.90
60717;DHT22;46566;52.700;6.192;2022-07-10T13:35:36;20.30;99.90
60717;DHT22;46566;52.700;6.192;2022-07-10T13:38:03;20.30;99.90
60717;DHT22;46566;52.700;6.192;2022-07-10T13:40:37;20.40;99.90
60717;DHT22;46566;52.700;6.192;2022-07-10T13:43:03;20.50;99.90
60717;DHT22;46566;52.700;6.192;2022-07-10T13:45:30;20.60;99.90
60717;DHT22;46566;52.700;6.192;2022-07-10T13:48:03;20.60;99.90
60717;DHT22;46566;52.700;6.192;2022-07-10T13:50:29;20.60;99.90
60717;DHT22;46566;52.700;6.192;2022-07-10T13:52:55;20.70;99.90
60717;DHT22;46566;52.700;6.192;2022-07-10T13:55:21;20.70;99.90
60717;DHT22;46566;52.700;6.192;2022-07-10T13:57:47;20.80;99.90
60717;DHT22;46566;52.700;6.192;2022-07-10T14:00:13;20.90;99.90
60717;DHT22;46566;52.700;6.192;2022-07-10T14:02:39;21.10;99.60
60717;DHT22;46566;52.700;6.192;2022-07-10T14:05:05;21.20;99.90
60717;DHT22;46566;52.700;6.192;2022-07-10T14:07:31;21.30;99.90
60717;DHT22;46566;52.700;6.192;2022-07-10T14:09:57;21.40;99.90
60717;DHT22;46566;52.700;6.192;2022-07-10T14:12:23;21.50;96.30
60717;DHT22;46566;52.700;6.192;2022-07-10T14:14:49;21.50;93.90
60717;DHT22;46566;52.700;6.192;2022-07-10T14:17:15;21.60;95.00
60717;DHT22;46566;52.700;6.192;2022-07-10T14:19:41;21.50;97.70
60717;DHT22;46566;52.700;6.192;2022-07-10T14:22:07;21.50;94.60
60717;DHT22;46566;52.700;6.192;2022-07-10T14:24:33;21.60;94.60
60717;DHT22;46566;52.700;6.192;2022-07-10T14:26:59;21.60;93.40
60717;DHT22;46566;52.700;6.192;2022-07-10T14:29:25;21.60;93.80
60717;DHT22;46566;52.700;6.192;2022-07-10T14:31:52;21.60;95.00
60717;DHT22;46566;52.700;6.192;2022-07-10T14:34:18;21.50;93.40
60717;DHT22;46566;52.700;6.192;2022-07-10T14:36:44;21.50;94.30
60717;DHT22;46566;52.700;6.192;2022-07-10T14:39:10;21.50;92.50
60717;DHT22;46566;52.700;6.192;2022-07-10T14:41:38;21.50;95.90
60717;DHT22;46566;52.700;6.192;2022-07-10T14:44:05;21.50;97.00
60717;DHT22;46566;52.700;6.192;2022-07-10T14:46:32;21.60;94.30
60717;DHT22;46566;52.700;6.192;2022-07-10T14:48:58;21.60;93.00
60717;DHT22;46566;52.700;6.192;2022-07-10T14:51:24;21.50;92.90
60717;DHT22;46566;52.700;6.192;2022-07-10T14:53:52;21.50;96.10
60717;DHT22;46566;52.700;6.192;2022-07-10T14:56:21;21.50;95.80
60717;DHT22;46566;52.700;6.192;2022-07-10T14:58:48;21.40;99.90
60717;DHT22;46566;52.700;6.192;2022-07-10T15:01:14;21.40;97.30
60717;DHT22;46566;52.700;6.192;2022-07-10T15:03:42;21.30;99.70
60717;DHT22;46566;52.700;6.192;2022-07-10T15:06:09;21.30;99.90
60717;DHT22;46566;52.700;6.192;2022-07-10T15:11:23;21.30;99.70
60717;DHT22;46566;52.700;6.192;2022-07-10T15:13:52;21.20;99.90
60717;DHT22;46566;52.700;6.192;2022-07-10T15:16:26;21.30;99.90
60717;DHT22;46566;52.700;6.192;2022-07-10T15:18:52;21.30;99.90
60717;DHT22;46566;52.700;6.192;2022-07-10T15:21:18;21.40;99.90
60717;DHT22;46566;52.700;6.192;2022-07-10T15:23:44;21.40;99.90
60717;DHT22;46566;52.700;6.192;2022-07-10T15:26:10;21.50;99.90
60717;DHT22;46566;52.700;6.192;2022-07-10T15:28:37;21.50;97.80
60717;DHT22;46566;52.700;6.192;2022-07-10T15:31:06;21.50;94.40
60717;DHT22;46566;52.700;6.192;2022-07-10T15:33:32;21.60;98.30
60717;DHT22;46566;52.700;6.192;2022-07-10T15:35:59;21.50;94.50
60717;DHT22;46566;52.700;6.192;2022-07-10T15:38:25;21.50;95.10
60717;DHT22;46566;52.700;6.192;2022-07-10T15:40:51;21.50;99.90
60717;DHT22;46566;52.700;6.192;2022-07-10T15:43:16;21.40;99.90
60717;DHT22;46566;52.700;6.192;2022-07-10T15:45:42;21.40;95.00
60717;DHT22;46566;52.700;6.192;2022-07-10T15:48:08;21.40;98.60
60717;DHT22;46566;52.700;6.192;2022-07-10T15:50:41;21.30;99.50
60717;DHT22;46566;52.700;6.192;2022-07-10T15:53:06;21.30;99.90
60717;DHT22;46566;52.700;6.192;2022-07-10T15:55:32;21.20;99.90
60717;DHT22;46566;52.700;6.192;2022-07-10T15:57:58;21.10;99.90
60717;DHT22;46566;52.700;6.192;2022-07-10T16:00:24;21.10;99.90
60717;DHT22;46566;52.700;6.192;2022-07-10T16:02:50;21.00;99.90
60717;DHT22;46566;52.700;6.192;2022-07-10T16:05:16;21.00;99.90
60717;DHT22;46566;52.700;6.192;2022-07-10T16:07:42;21.00;99.90